createdAt,value
2018-07-26T00:01:26.701Z,92.13
2018-07-26T00:03:54.963Z,91.85
2018-07-26T00:06:23.235Z,91.37
2018-07-26T00:08:51.508Z,91.69
2018-07-26T00:11:19.687Z,92.64
2018-07-26T00:13:47.970Z,92.59
2018-07-26T00:16:16.239Z,92.29
2018-07-26T00:18:44.631Z,92.96
2018-07-26T00:21:12.906Z,92.57
2018-07-26T00:23:41.146Z,92.51
2018-07-26T00:26:09.658Z,91.84
2018-07-26T00:28:37.915Z,92.23
2018-07-26T00:31:06.314Z,92.27
2018-07-26T00:33:34.584Z,92.40
2018-07-26T00:36:02.841Z,92.80
2018-07-26T00:38:30.766Z,93.28
2018-07-26T00:40:59.024Z,93.18
2018-07-26T00:43:27.257Z,92.69
2018-07-26T00:45:55.422Z,92.43
2018-07-26T00:48:23.713Z,92.66
2018-07-26T00:50:51.989Z,92.55
2018-07-26T00:53:20.366Z,93.23
2018-07-26T00:55:48.653Z,94.20
2018-07-26T00:58:16.918Z,94.34
2018-07-26T01:00:45.098Z,94.10
2018-07-26T01:03:13.569Z,94.45
2018-07-26T01:05:41.853Z,94.22
2018-07-26T01:08:10.238Z,94.91
2018-07-26T01:10:38.509Z,94.74
2018-07-26T01:13:06.789Z,94.86
2018-07-26T01:15:35.162Z,94.56
2018-07-26T01:18:03.546Z,94.89
2018-07-26T01:20:32.009Z,94.59
2018-07-26T01:23:00.295Z,94.31
2018-07-26T01:25:28.358Z,94.30
2018-07-26T01:27:56.741Z,95.31
2018-07-26T01:30:25.222Z,94.86
2018-07-26T01:32:53.604Z,93.88
2018-07-26T01:35:21.978Z,93.63
2018-07-26T01:37:50.354Z,93.20
2018-07-26T01:40:18.521Z,93.81
2018-07-26T01:43:56.323Z,93.54
2018-07-26T01:46:25.680Z,93.47
2018-07-26T01:48:54.016Z,94.97
2018-07-26T01:51:22.389Z,94.86
2018-07-26T01:53:50.657Z,95.21
2018-07-26T01:56:19.137Z,94.59
2018-07-26T01:58:47.618Z,94.19
2018-07-26T02:01:15.992Z,94.94
2018-07-26T02:03:44.382Z,95.27
2018-07-26T02:06:12.554Z,95.54
2018-07-26T02:08:40.942Z,95.06
2018-07-26T02:11:09.001Z,94.73
2018-07-26T02:13:37.382Z,94.79
2018-07-26T02:16:05.749Z,94.60
2018-07-26T02:18:34.237Z,94.50
2018-07-26T02:21:02.718Z,95.16
2018-07-26T02:23:31.197Z,95.64
2018-07-26T02:25:59.452Z,96.20
2018-07-26T02:28:27.742Z,95.82
2018-07-26T02:30:56.221Z,95.04
2018-07-26T02:33:24.401Z,94.67
2018-07-26T02:35:52.876Z,94.42
2018-07-26T02:38:21.046Z,93.87
2018-07-26T02:40:49.428Z,94.08
2018-07-26T02:43:17.717Z,94.15
2018-07-26T02:45:45.986Z,94.14
2018-07-26T02:48:14.262Z,93.75
2018-07-26T02:50:42.402Z,93.53
2018-07-26T02:53:10.709Z,93.80
2018-07-26T02:55:39.086Z,94.89
2018-07-26T02:58:07.550Z,95.39
2018-07-26T03:00:35.842Z,95.18
2018-07-26T03:03:04.220Z,94.72
2018-07-26T03:05:32.598Z,95.12
2018-07-26T03:08:00.876Z,95.36
2018-07-26T03:10:29.242Z,94.87
2018-07-26T03:12:57.126Z,94.54
2018-07-26T03:15:25.595Z,94.98
2018-07-26T03:17:53.771Z,96.08
2018-07-26T03:20:21.941Z,95.91
2018-07-26T03:22:50.210Z,95.96
2018-07-26T03:25:18.502Z,94.80
2018-07-26T03:27:46.766Z,94.22
2018-07-26T03:30:15.133Z,94.24
2018-07-26T03:32:43.317Z,93.95
2018-07-26T03:35:11.697Z,93.88
2018-07-26T03:37:40.074Z,94.42
2018-07-26T03:40:08.454Z,94.41
2018-07-26T03:42:36.832Z,94.25
2018-07-26T03:45:05.297Z,93.98
2018-07-26T03:47:33.677Z,93.78
2018-07-26T03:50:01.969Z,93.09
2018-07-26T03:52:30.229Z,93.05
2018-07-26T03:54:58.523Z,92.86
2018-07-26T03:57:26.889Z,92.86
2018-07-26T03:59:55.151Z,92.79
2018-07-26T04:02:23.442Z,93.73
2018-07-26T04:04:51.719Z,93.20
2018-07-26T04:07:19.615Z,93.16
2018-07-26T04:09:47.852Z,93.00
2018-07-26T04:12:16.131Z,92.90
2018-07-26T04:14:44.298Z,92.44
2018-07-26T04:17:12.587Z,91.90
2018-07-26T04:19:40.848Z,91.97
2018-07-26T04:22:09.338Z,91.97
2018-07-26T04:24:37.550Z,92.94
2018-07-26T04:27:05.892Z,93.20
2018-07-26T04:29:34.260Z,93.22
2018-07-26T04:32:02.684Z,93.26
2018-07-26T04:34:31.018Z,92.80
2018-07-26T04:36:59.397Z,92.34
2018-07-26T04:39:27.565Z,91.34
2018-07-26T04:41:55.940Z,90.86
2018-07-26T04:44:24.126Z,90.58
2018-07-26T04:46:52.289Z,90.78
2018-07-26T04:49:20.568Z,90.72
2018-07-26T04:51:49.045Z,91.24
2018-07-26T04:54:17.121Z,91.85
2018-07-26T04:56:45.488Z,91.21
2018-07-26T04:59:13.753Z,92.20
2018-07-26T05:01:41.922Z,92.12
2018-07-26T05:04:10.221Z,92.44
2018-07-26T05:06:38.502Z,91.56
2018-07-26T05:09:08.331Z,90.91
2018-07-26T05:11:36.781Z,90.52
2018-07-26T05:14:05.162Z,90.20
2018-07-26T05:16:33.653Z,89.81
2018-07-26T05:19:02.073Z,89.45
2018-07-26T05:21:30.756Z,89.78
2018-07-26T05:23:59.293Z,88.94
2018-07-26T05:26:27.665Z,89.12
2018-07-26T05:28:55.838Z,88.76
2018-07-26T05:31:24.214Z,86.80
2018-07-26T05:33:52.606Z,87.11
2018-07-26T05:36:20.977Z,86.86
2018-07-26T05:38:49.146Z,86.88
2018-07-26T05:41:17.520Z,86.30
2018-07-26T05:43:45.804Z,86.92
2018-07-26T05:46:14.291Z,86.24
2018-07-26T05:48:42.653Z,86.48
2018-07-26T05:51:11.145Z,84.98
2018-07-26T05:53:39.514Z,85.02
2018-07-26T05:56:07.992Z,85.55
2018-07-26T05:58:36.373Z,84.86
2018-07-26T06:01:04.757Z,85.13
2018-07-26T06:03:33.125Z,85.55
2018-07-26T06:06:01.619Z,85.56
2018-07-26T06:08:29.982Z,85.01
2018-07-26T06:10:58.301Z,84.51
2018-07-26T06:13:26.741Z,84.44
2018-07-26T06:15:55.028Z,83.30
2018-07-26T06:18:22.861Z,82.93
2018-07-26T06:20:51.158Z,82.84
2018-07-26T06:23:19.533Z,82.74
2018-07-26T06:25:48.229Z,82.63
2018-07-26T06:28:16.651Z,83.25
2018-07-26T06:30:44.874Z,83.56
2018-07-26T06:33:13.366Z,83.32
2018-07-26T06:35:41.535Z,82.27
2018-07-26T06:38:09.910Z,82.62
2018-07-26T06:40:38.177Z,81.80
2018-07-26T06:43:06.453Z,82.01
2018-07-26T06:45:34.842Z,81.80
2018-07-26T06:48:03.120Z,81.60
2018-07-26T06:50:31.485Z,79.60
2018-07-26T06:53:00.008Z,79.36
2018-07-26T06:55:28.341Z,79.00
2018-07-26T06:57:56.817Z,79.37
2018-07-26T07:00:25.202Z,78.80
2018-07-26T07:02:53.614Z,78.74
2018-07-26T07:05:21.957Z,79.95
2018-07-26T07:07:50.228Z,78.62
2018-07-26T07:10:18.621Z,78.24
2018-07-26T07:12:46.792Z,79.01
2018-07-26T07:15:15.178Z,78.45
2018-07-26T07:17:43.428Z,78.14
2018-07-26T07:20:12.035Z,77.12
2018-07-26T07:22:40.293Z,77.85
2018-07-26T07:25:08.682Z,76.83
2018-07-26T07:27:36.561Z,76.29
2018-07-26T07:30:06.861Z,74.48
2018-07-26T07:32:35.146Z,75.40
2018-07-26T07:35:03.426Z,75.52
2018-07-26T07:37:31.798Z,75.93
2018-07-26T07:40:00.083Z,76.12
2018-07-26T07:42:28.349Z,76.38
2018-07-26T07:44:56.734Z,75.47
2018-07-26T07:47:25.150Z,75.17
2018-07-26T07:49:53.473Z,75.24
2018-07-26T07:52:21.948Z,75.41
2018-07-26T07:54:50.237Z,75.07
2018-07-26T07:57:43.424Z,75.47
2018-07-26T08:02:22.655Z,76.08
2018-07-26T08:08:00.512Z,75.47
2018-07-26T08:10:49.302Z,75.65
2018-07-26T08:21:33.619Z,73.94
2018-07-26T08:24:01.893Z,72.64
2018-07-26T08:26:30.067Z,72.54
2018-07-26T08:28:58.448Z,71.98
2018-07-26T08:31:26.824Z,71.90
2018-07-26T08:33:55.134Z,72.70
2018-07-26T08:36:23.354Z,73.21
2018-07-26T08:38:51.756Z,71.83
2018-07-26T08:41:20.287Z,71.10
2018-07-26T08:43:48.712Z,71.32
2018-07-26T08:46:17.081Z,70.69
2018-07-26T08:48:45.359Z,70.30
2018-07-26T08:51:13.650Z,70.11
2018-07-26T08:53:41.914Z,70.36
2018-07-26T08:56:10.184Z,69.10
2018-07-26T08:58:38.460Z,69.06
2018-07-26T09:01:06.839Z,68.71
2018-07-26T09:03:35.257Z,67.20
2018-07-26T09:06:03.702Z,67.52
2018-07-26T09:08:31.873Z,67.97
2018-07-26T09:11:00.308Z,66.99
2018-07-26T09:13:28.487Z,66.42
2018-07-26T09:15:56.727Z,66.53
2018-07-26T09:18:24.974Z,66.23
2018-07-26T09:20:53.282Z,64.89
2018-07-26T09:23:21.729Z,66.36
2018-07-26T09:25:49.996Z,66.53
2018-07-26T09:28:18.369Z,67.12
2018-07-26T09:30:46.566Z,66.85
2018-07-26T09:33:14.988Z,67.71
2018-07-26T09:35:42.850Z,66.05
2018-07-26T09:38:10.966Z,65.58
2018-07-26T09:40:39.474Z,65.36
2018-07-26T09:43:07.702Z,65.63
2018-07-26T09:45:35.893Z,66.01
2018-07-26T09:48:04.298Z,65.73
2018-07-26T09:50:32.545Z,65.20
2018-07-26T09:53:00.926Z,65.02
2018-07-26T09:55:29.467Z,64.42
2018-07-26T09:57:57.790Z,64.50
2018-07-26T10:00:31.510Z,64.22
2018-07-26T10:02:59.770Z,62.30
2018-07-26T10:05:27.872Z,63.90
2018-07-26T10:07:56.928Z,64.50
2018-07-26T10:10:25.401Z,62.83
2018-07-26T10:12:53.489Z,61.54
2018-07-26T10:15:21.788Z,62.37
2018-07-26T10:17:50.027Z,61.32
2018-07-26T10:20:18.579Z,63.19
2018-07-26T10:22:46.894Z,63.25
2018-07-26T10:25:15.389Z,63.21
2018-07-26T10:27:43.704Z,62.14
2018-07-26T10:30:12.026Z,61.58
2018-07-26T10:32:40.285Z,62.74
2018-07-26T10:35:08.877Z,61.59
2018-07-26T10:37:37.167Z,60.89
2018-07-26T10:40:05.551Z,62.81
2018-07-26T10:42:33.806Z,62.63
2018-07-26T10:45:01.678Z,62.84
2018-07-26T10:47:29.933Z,62.40
2018-07-26T10:49:58.404Z,62.66
2018-07-26T10:52:26.714Z,61.25
2018-07-26T10:54:55.198Z,61.03
2018-07-26T10:57:23.570Z,61.55
2018-07-26T10:59:52.056Z,61.45
2018-07-26T11:02:20.327Z,62.12
2018-07-26T11:04:48.603Z,62.27
2018-07-26T11:07:16.765Z,60.62
2018-07-26T11:09:45.060Z,62.83
2018-07-26T11:12:13.317Z,62.59
2018-07-26T11:14:41.499Z,59.86
2018-07-26T11:17:09.874Z,58.76
2018-07-26T11:19:38.049Z,59.11
2018-07-26T11:22:06.321Z,60.83
2018-07-26T11:24:34.707Z,58.33
2018-07-26T11:27:02.992Z,60.07
2018-07-26T11:29:31.403Z,58.79
2018-07-26T11:31:59.311Z,61.34
2018-07-26T11:34:27.700Z,60.02
2018-07-26T11:36:56.080Z,59.01
2018-07-26T11:39:24.350Z,59.37
2018-07-26T11:41:52.735Z,61.18
2018-07-26T11:44:21.176Z,58.41
2018-07-26T11:46:49.689Z,61.16
2018-07-26T11:49:18.070Z,58.27
2018-07-26T11:51:46.445Z,59.27
2018-07-26T11:54:14.720Z,60.34
2018-07-26T11:56:43.198Z,59.31
2018-07-26T11:59:12.133Z,60.08
2018-07-26T12:01:40.381Z,59.78
2018-07-26T12:04:08.837Z,61.14
2018-07-26T12:06:37.213Z,61.03
2018-07-26T12:09:08.218Z,59.49
2018-07-26T12:11:36.533Z,57.98
2018-07-26T12:14:04.910Z,61.33
2018-07-26T12:16:33.293Z,58.63
2018-07-26T12:19:01.580Z,61.61
2018-07-26T12:21:29.951Z,59.72
2018-07-26T12:23:58.332Z,54.87
2018-07-26T12:26:26.801Z,56.76
2018-07-26T12:28:55.077Z,55.64
2018-07-26T12:31:23.509Z,55.15
2018-07-26T12:33:51.841Z,57.11
2018-07-26T12:36:20.015Z,55.99
2018-07-26T12:38:48.496Z,57.32
2018-07-26T12:41:16.771Z,55.51
2018-07-26T12:43:45.154Z,60.45
2018-07-26T12:46:13.430Z,59.54
2018-07-26T12:48:41.689Z,57.78
2018-07-26T12:51:09.976Z,56.87
2018-07-26T12:53:38.321Z,56.09
2018-07-26T12:56:06.730Z,56.46
2018-07-26T12:58:35.317Z,57.14
2018-07-26T13:01:03.790Z,54.95
2018-07-26T13:03:32.065Z,57.57
2018-07-26T13:06:00.471Z,60.22
2018-07-26T13:08:28.786Z,55.08
2018-07-26T13:10:56.886Z,55.91
2018-07-26T13:13:25.170Z,55.60
2018-07-26T13:15:53.550Z,59.56
2018-07-26T13:18:21.924Z,59.22
2018-07-26T13:20:50.302Z,54.46
2018-07-26T13:23:18.579Z,54.59
2018-07-26T13:25:47.174Z,54.86
2018-07-26T13:28:15.629Z,59.81
2018-07-26T13:30:44.075Z,58.72
2018-07-26T13:33:13.034Z,56.87
2018-07-26T13:35:41.649Z,55.71
2018-07-26T13:38:10.186Z,57.13
2018-07-26T13:40:38.809Z,55.21
2018-07-26T13:43:07.245Z,54.73
2018-07-26T13:45:35.834Z,56.34
2018-07-26T13:48:04.534Z,53.88
2018-07-26T13:50:33.108Z,53.46
2018-07-26T13:53:01.942Z,59.92
2018-07-26T13:55:31.026Z,58.71
2018-07-26T13:57:59.554Z,52.72
2018-07-26T14:00:27.831Z,51.28
2018-07-26T14:02:56.409Z,51.64
2018-07-26T14:05:24.687Z,51.95
2018-07-26T14:07:53.067Z,53.15
2018-07-26T14:10:21.275Z,58.49
2018-07-26T14:12:49.605Z,56.29
2018-07-26T14:15:18.223Z,52.69
2018-07-26T14:17:46.582Z,58.79
2018-07-26T14:20:14.990Z,55.84
2018-07-26T14:22:43.432Z,58.25
2018-07-26T14:25:11.838Z,53.42
2018-07-26T14:27:40.029Z,53.80
2018-07-26T14:30:08.826Z,53.17
2018-07-26T14:32:37.346Z,58.66
2018-07-26T14:35:06.047Z,52.98
2018-07-26T14:37:34.582Z,57.54
2018-07-26T14:40:03.002Z,55.46
2018-07-26T14:42:30.996Z,53.02
2018-07-26T14:44:59.352Z,54.81
2018-07-26T14:47:27.817Z,53.28
2018-07-26T14:49:55.749Z,53.93
2018-07-26T14:52:24.277Z,54.21
2018-07-26T14:54:52.662Z,58.42
2018-07-26T14:57:20.710Z,56.76
2018-07-26T14:59:48.997Z,55.96
2018-07-26T15:02:17.265Z,59.71
2018-07-26T15:04:45.564Z,56.52
2018-07-26T15:07:14.020Z,56.06
2018-07-26T15:09:42.372Z,59.60
2018-07-26T15:12:10.786Z,58.31
2018-07-26T15:14:38.953Z,60.04
2018-07-26T15:17:07.544Z,58.42
2018-07-26T15:19:36.065Z,61.21
2018-07-26T15:22:04.698Z,60.95
2018-07-26T15:24:33.886Z,58.96
2018-07-26T15:27:02.291Z,61.02
2018-07-26T15:29:30.551Z,59.10
2018-07-26T15:31:58.835Z,59.08
2018-07-26T15:34:27.193Z,59.28
2018-07-26T15:36:55.495Z,59.31
2018-07-26T15:39:23.761Z,59.93
2018-07-26T15:41:52.243Z,59.76
2018-07-26T15:44:20.412Z,59.81
2018-07-26T15:46:48.777Z,61.40
2018-07-26T15:49:17.074Z,59.95
2018-07-26T15:51:45.041Z,58.59
2018-07-26T15:54:13.521Z,60.71
2018-07-26T15:56:41.785Z,59.96
2018-07-26T15:59:09.710Z,59.14
2018-07-26T16:01:38.239Z,59.97
2018-07-26T16:04:06.466Z,59.47
2018-07-26T16:06:34.683Z,59.43
2018-07-26T16:09:02.966Z,60.16
2018-07-26T16:11:30.946Z,60.24
2018-07-26T16:13:58.853Z,59.96
2018-07-26T16:16:26.765Z,62.50
2018-07-26T16:18:54.709Z,60.68
2018-07-26T16:21:22.601Z,60.15
2018-07-26T16:23:50.498Z,61.06
2018-07-26T16:26:18.417Z,60.89
2018-07-26T16:28:46.462Z,61.56
2018-07-26T16:31:14.400Z,60.88
2018-07-26T16:33:42.514Z,63.51
2018-07-26T16:36:10.815Z,60.36
2018-07-26T16:38:39.395Z,61.06
2018-07-26T16:41:07.682Z,60.02
2018-07-26T16:43:36.168Z,60.37
2018-07-26T16:46:04.306Z,63.75
2018-07-26T16:48:32.819Z,60.94
2018-07-26T16:51:01.191Z,60.57
2018-07-26T16:53:29.254Z,62.31
2018-07-26T16:55:57.639Z,61.85
2018-07-26T16:58:26.321Z,60.41
2018-07-26T17:00:54.591Z,60.01
2018-07-26T17:03:22.978Z,59.89
2018-07-26T17:05:51.359Z,59.98
2018-07-26T17:08:19.729Z,61.66
2018-07-26T17:10:47.913Z,60.78
2018-07-26T17:13:16.382Z,60.07
2018-07-26T17:24:28.130Z,64.55
2018-07-26T17:26:56.406Z,61.30
2018-07-26T17:29:24.886Z,61.81
2018-07-26T17:31:53.050Z,62.80
2018-07-26T17:34:21.328Z,61.96
2018-07-26T17:40:30.972Z,62.46
2018-07-26T17:47:25.647Z,63.82
2018-07-26T17:59:51.752Z,65.81
2018-07-26T18:08:56.240Z,65.81
2018-07-26T18:11:25.457Z,66.65
2018-07-26T18:13:53.933Z,66.95
2018-07-26T18:16:22.824Z,67.20
2018-07-26T18:18:51.165Z,67.13
2018-07-26T18:21:19.790Z,67.12
2018-07-26T18:23:48.070Z,67.79
2018-07-26T18:26:16.623Z,67.70
2018-07-26T18:28:44.929Z,67.96
2018-07-26T18:31:13.307Z,68.19
2018-07-26T18:33:41.369Z,68.22
2018-07-26T18:36:09.654Z,68.33
2018-07-26T18:38:37.930Z,69.17
2018-07-26T18:41:06.175Z,68.76
2018-07-26T18:43:34.494Z,69.10
2018-07-26T18:46:02.957Z,68.80
2018-07-26T18:48:31.228Z,69.32
2018-07-26T18:50:59.510Z,69.49
2018-07-26T18:53:27.889Z,69.23
2018-07-26T18:55:56.158Z,68.92
2018-07-26T18:58:24.433Z,68.85
2018-07-26T19:00:52.909Z,68.95
2018-07-26T19:03:21.405Z,69.26
2018-07-26T19:05:49.674Z,69.02
2018-07-26T19:08:18.158Z,69.57
2018-07-26T19:10:46.458Z,69.37
2018-07-26T19:13:14.810Z,69.17
2018-07-26T19:15:43.178Z,69.56
2018-07-26T19:18:11.470Z,70.50
2018-07-26T19:20:39.431Z,71.38
2018-07-26T19:23:07.802Z,72.61
2018-07-26T19:25:36.081Z,73.11
2018-07-26T19:42:17.017Z,74.08
2018-07-26T19:53:17.642Z,74.25
2018-07-26T19:56:05.617Z,74.91
2018-07-26T20:03:11.105Z,75.86
2018-07-26T20:06:20.333Z,75.75
2018-07-26T20:18:42.193Z,75.76
2018-07-26T20:29:08.955Z,75.90
2018-07-26T20:36:43.196Z,76.66
2018-07-26T20:39:41.799Z,76.77
2018-07-26T20:42:59.752Z,76.96
2018-07-26T20:50:43.565Z,77.28
2018-07-26T20:53:52.610Z,77.57
2018-07-26T20:56:59.578Z,77.40
2018-07-26T21:03:27.680Z,77.57
2018-07-26T21:06:35.326Z,77.18
2018-07-26T21:09:41.959Z,76.96
2018-07-26T21:12:46.508Z,77.14
2018-07-26T21:15:46.894Z,77.04
2018-07-26T21:24:14.821Z,76.69
2018-07-26T21:27:03.026Z,76.96
2018-07-26T21:29:57.538Z,76.95
2018-07-26T21:33:06.977Z,76.48
2018-07-26T21:36:27.713Z,77.08
2018-07-26T21:48:29.624Z,76.69
2018-07-26T21:53:12.930Z,76.44
2018-07-26T21:59:08.348Z,76.02
2018-07-26T22:08:40.122Z,78.16
2018-07-26T22:11:51.115Z,77.67
2018-07-26T22:14:40.102Z,78.16
2018-07-26T22:18:13.254Z,78.55
2018-07-26T22:24:35.844Z,79.01
2018-07-26T22:27:29.659Z,79.23
2018-07-26T22:55:39.007Z,79.36
2018-07-26T23:11:13.779Z,79.00
2018-07-26T23:14:32.854Z,79.83
2018-07-26T23:17:17.618Z,80.44
2018-07-26T23:35:19.191Z,83.24
2018-07-26T23:41:28.046Z,85.73
2018-07-26T23:47:26.451Z,86.99
2018-07-26T23:53:11.177Z,86.16
